createdAt,value
2023-04-11T00:01:10.585Z,98931.17
2023-04-11T00:06:13.121Z,98925.59
2023-04-11T00:11:15.530Z,98921.98
2023-04-11T00:16:19.574Z,98913.55
2023-04-11T00:21:21.585Z,98904.40
2023-04-11T00:26:23.480Z,98904.52
2023-04-11T00:31:26.257Z,98899.61
2023-04-11T00:36:28.252Z,98893.32
2023-04-11T00:41:30.399Z,98882.36
2023-04-11T00:46:33.782Z,98880.19
2023-04-11T00:51:35.896Z,98874.11
2023-04-11T00:56:37.950Z,98874.59
2023-04-11T01:01:41.734Z,98872.30
2023-04-11T01:06:47.727Z,98867.45
2023-04-11T01:11:51.684Z,98858.17
2023-04-11T01:16:56.540Z,98852.51
2023-04-11T01:22:01.792Z,98849.13
2023-04-11T01:27:04.174Z,98850.52
2023-04-11T01:32:06.506Z,98854.05
2023-04-11T01:37:09.222Z,98848.02
2023-04-11T01:42:12.752Z,98841.20
2023-04-11T01:47:14.918Z,98839.79
2023-04-11T01:52:17.505Z,98838.09
2023-04-11T01:57:19.291Z,98832.39
2023-04-11T02:02:22.420Z,98825.13
2023-04-11T02:07:24.802Z,98812.18
2023-04-11T02:12:27.568Z,98804.79
2023-04-11T02:17:31.116Z,98796.86
2023-04-11T02:22:33.322Z,98785.16
2023-04-11T02:27:35.728Z,98781.36
2023-04-11T02:32:38.411Z,98775.08
2023-04-11T02:37:40.388Z,98760.77
2023-04-11T02:42:43.371Z,98756.09
2023-04-11T02:47:46.060Z,98750.33
2023-04-11T02:52:50.864Z,98752.30
2023-04-11T02:57:55.670Z,98760.29
2023-04-11T03:02:59.207Z,98761.05
2023-04-11T03:08:03.137Z,98751.77
2023-04-11T03:13:07.015Z,98744.55
2023-04-11T03:18:08.930Z,98741.77
2023-04-11T03:23:13.178Z,98738.94
2023-04-11T03:28:15.543Z,98727.77
2023-04-11T03:33:18.728Z,98719.52
2023-04-11T03:38:21.341Z,98717.45
2023-04-11T03:43:23.544Z,98710.44
2023-04-11T03:48:26.630Z,98708.19
2023-04-11T03:53:33.882Z,98698.85
2023-04-11T03:58:40.391Z,98695.09
2023-04-11T04:03:44.154Z,98689.98
2023-04-11T04:08:48.429Z,98678.53
2023-04-11T04:13:51.443Z,98671.89
2023-04-11T04:18:54.565Z,98677.11
2023-04-11T04:23:58.095Z,98672.78
2023-04-11T04:29:10.126Z,98665.30
2023-04-11T04:34:31.318Z,98652.71
2023-04-11T04:39:34.392Z,98638.66
2023-04-11T04:44:37.707Z,98626.63
2023-04-11T04:49:46.450Z,98623.16
2023-04-11T04:54:48.507Z,98614.20
2023-04-11T04:59:50.468Z,98608.12
2023-04-11T05:04:54.577Z,98598.60
2023-04-11T05:09:57.656Z,98585.04
2023-04-11T05:15:00.620Z,98581.66
2023-04-11T05:20:06.359Z,98576.72
2023-04-11T05:25:11.673Z,98577.00
2023-04-11T05:30:14.679Z,98570.21
2023-04-11T05:35:17.360Z,98564.38
2023-04-11T05:40:25.584Z,98563.58
2023-04-11T05:45:27.631Z,98553.27
2023-04-11T05:50:29.601Z,98544.47
2023-04-11T05:55:32.080Z,98540.30
2023-04-11T06:00:34.612Z,98548.30
2023-04-11T06:05:37.802Z,98540.69
2023-04-11T06:10:40.258Z,98540.75
2023-04-11T06:15:42.315Z,98557.73
2023-04-11T06:20:46.273Z,98563.55
2023-04-11T06:25:48.385Z,98552.74
2023-04-11T06:30:50.317Z,98543.28
2023-04-11T06:35:52.442Z,98535.16
2023-04-11T06:40:56.332Z,98524.98
2023-04-11T06:45:58.553Z,98526.60
2023-04-11T06:51:00.329Z,98529.03
2023-04-11T06:56:02.362Z,98533.57
2023-04-11T07:01:04.235Z,98533.46
2023-04-11T07:06:07.581Z,98521.97
2023-04-11T07:11:09.922Z,98510.25
2023-04-11T07:16:12.061Z,98495.62
2023-04-11T07:21:15.242Z,98487.89
2023-04-11T07:26:18.033Z,98474.38
2023-04-11T07:31:21.614Z,98466.41
2023-04-11T07:36:23.879Z,98470.08
2023-04-11T07:41:25.666Z,98464.36
2023-04-11T07:46:27.654Z,98458.25
2023-04-11T07:51:29.461Z,98454.02
2023-04-11T07:56:31.359Z,98444.69
2023-04-11T08:01:33.207Z,98435.83
2023-04-11T08:06:35.721Z,98433.22
2023-04-11T08:11:39.349Z,98427.66
2023-04-11T08:16:41.537Z,98423.23
2023-04-11T08:21:43.376Z,98418.09
2023-04-11T08:26:45.952Z,98410.73
2023-04-11T08:31:47.731Z,98405.81
2023-04-11T08:36:49.701Z,98397.95
2023-04-11T08:41:51.692Z,98387.23
2023-04-11T08:46:53.728Z,98382.42
2023-04-11T08:51:56.215Z,98373.61
2023-04-11T08:56:58.286Z,98371.84
2023-04-11T09:02:09.526Z,98366.55
2023-04-11T09:07:12.152Z,98356.77
2023-04-11T09:12:14.447Z,98351.30
2023-04-11T09:17:17.758Z,98348.48
2023-04-11T09:22:19.570Z,98349.39
2023-04-11T09:27:24.554Z,98340.05
2023-04-11T09:32:34.711Z,98330.96
2023-04-11T09:37:45.491Z,98325.54
2023-04-11T09:42:48.796Z,98317.76
2023-04-11T09:47:53.555Z,98313.11
2023-04-11T09:52:58.869Z,98299.27
2023-04-11T09:58:01.523Z,98287.73
2023-04-11T10:03:03.594Z,98276.59
2023-04-11T10:08:22.936Z,98269.22
2023-04-11T10:13:45.136Z,98255.77
2023-04-11T10:18:53.293Z,98244.89
2023-04-11T10:24:17.168Z,98238.82
2023-04-11T10:29:30.170Z,98224.14
2023-04-11T10:34:32.396Z,98210.92
2023-04-11T10:40:04.865Z,98202.38
2023-04-11T10:45:29.282Z,98201.43
2023-04-11T10:50:31.619Z,98201.24
2023-04-11T10:55:48.429Z,98198.07
2023-04-11T11:00:53.794Z,98192.37
2023-04-11T11:05:59.885Z,98194.95
2023-04-11T11:11:08.130Z,98198.27
2023-04-11T11:16:14.699Z,98192.06
2023-04-11T11:21:26.714Z,98191.07
2023-04-11T11:26:36.983Z,98190.14
2023-04-11T11:31:45.934Z,98187.80
2023-04-11T11:36:48.081Z,98188.35
2023-04-11T11:41:51.569Z,98189.92
2023-04-11T11:47:17.420Z,98187.40
2023-04-11T11:52:34.994Z,98183.67
2023-04-11T11:57:37.577Z,98187.58
2023-04-11T12:02:40.963Z,98183.05
2023-04-11T12:07:42.876Z,98176.77
2023-04-11T12:12:53.357Z,98170.79
2023-04-11T12:17:56.195Z,98161.36
2023-04-11T12:22:58.676Z,98152.28
2023-04-11T12:28:00.493Z,98146.65
2023-04-11T12:33:02.696Z,98139.48
2023-04-11T12:38:04.600Z,98138.73
2023-04-11T12:43:06.581Z,98131.23
2023-04-11T12:48:08.520Z,98124.30
2023-04-11T12:53:10.705Z,98119.33
2023-04-11T12:58:12.453Z,98109.36
2023-04-11T13:03:14.598Z,98107.66
2023-04-11T13:08:16.869Z,98103.94
2023-04-11T13:13:19.095Z,98107.73
2023-04-11T13:18:21.089Z,98107.29
2023-04-11T13:23:23.541Z,98107.11
2023-04-11T13:28:25.475Z,98105.36
2023-04-11T13:33:27.617Z,98103.58
2023-04-11T13:38:29.482Z,98104.23
2023-04-11T13:43:31.891Z,98108.20
2023-04-11T13:48:35.647Z,98099.57
2023-04-11T13:53:37.614Z,98092.80
2023-04-11T13:58:39.504Z,98089.63
2023-04-11T14:03:43.001Z,98091.42
2023-04-11T14:08:45.407Z,98086.44
2023-04-11T14:13:47.581Z,98089.34
2023-04-11T14:18:49.458Z,98097.83
2023-04-11T14:23:51.924Z,98101.81
2023-04-11T14:28:53.849Z,98106.54
2023-04-11T14:33:56.195Z,98117.38
2023-04-11T14:38:58.084Z,98124.77
2023-04-11T14:44:00.611Z,98137.36
2023-04-11T14:49:02.707Z,98135.20
2023-04-11T14:54:04.799Z,98141.94
2023-04-11T14:59:07.747Z,98149.02
2023-04-11T15:04:09.936Z,98147.54
2023-04-11T15:09:13.090Z,98152.85
2023-04-11T15:14:15.870Z,98150.16
2023-04-11T15:19:17.883Z,98142.04
2023-04-11T15:24:20.027Z,98144.84
2023-04-11T15:29:21.976Z,98146.60
2023-04-11T15:34:24.854Z,98134.88
2023-04-11T15:39:27.253Z,98150.55
2023-04-11T15:44:29.740Z,98145.59
2023-04-11T15:49:31.811Z,98147.45
2023-04-11T15:54:33.923Z,98155.96
2023-04-11T15:59:37.977Z,98156.94
2023-04-11T16:04:44.000Z,98163.14
2023-04-11T16:09:47.257Z,98162.80
2023-04-11T16:14:49.309Z,98149.03
2023-04-11T16:19:52.639Z,98136.41
2023-04-11T16:24:56.368Z,98142.34
2023-04-11T16:30:01.272Z,98155.31
2023-04-11T16:35:03.531Z,98158.30
2023-04-11T16:40:11.262Z,98165.91
2023-04-11T16:45:14.296Z,98165.63
2023-04-11T16:50:17.639Z,98170.63
2023-04-11T16:55:20.090Z,98173.05
2023-04-11T17:00:22.146Z,98176.13
2023-04-11T17:05:24.121Z,98183.01
2023-04-11T17:10:26.446Z,98180.41
2023-04-11T17:15:28.857Z,98191.84
2023-04-11T17:20:31.205Z,98197.99
2023-04-11T17:25:34.307Z,98193.41
2023-04-11T17:30:36.556Z,98195.27
2023-04-11T17:35:38.937Z,98189.98
2023-04-11T17:40:41.420Z,98194.98
2023-04-11T17:45:43.921Z,98197.69
2023-04-11T17:50:46.362Z,98214.91
2023-04-11T17:55:48.679Z,98224.74
2023-04-11T18:00:56.680Z,98233.52
2023-04-11T18:06:00.094Z,98242.85
2023-04-11T18:11:03.558Z,98245.95
2023-04-11T18:16:06.255Z,98249.05
2023-04-11T18:21:08.358Z,98254.21
2023-04-11T18:26:10.941Z,98264.02
2023-04-11T18:31:12.876Z,98266.06
2023-04-11T18:36:16.970Z,98273.29
2023-04-11T18:41:20.220Z,98285.42
2023-04-11T18:46:22.716Z,98290.54
2023-04-11T18:51:26.434Z,98290.70
2023-04-11T18:56:28.639Z,98289.75
2023-04-11T19:01:31.687Z,98290.30
2023-04-11T19:06:35.419Z,98291.41
2023-04-11T19:11:41.430Z,98289.63
2023-04-11T19:16:44.265Z,98287.31
2023-04-11T19:21:47.197Z,98285.96
2023-04-11T19:26:50.975Z,98276.33
2023-04-11T19:31:52.805Z,98282.34
2023-04-11T19:36:55.647Z,98284.08
2023-04-11T19:41:57.593Z,98287.58
2023-04-11T19:46:59.702Z,98288.27
2023-04-11T19:52:01.561Z,98292.07
2023-04-11T19:57:03.912Z,98294.94
2023-04-11T20:02:06.088Z,98297.46
2023-04-11T20:07:08.215Z,98298.88
2023-04-11T20:12:11.130Z,98308.09
2023-04-11T20:17:15.583Z,98302.80
2023-04-11T20:22:19.146Z,98308.68
2023-04-11T20:27:21.438Z,98317.61
2023-04-11T20:32:23.287Z,98315.44
2023-04-11T20:37:25.782Z,98313.58
2023-04-11T20:42:30.938Z,98311.59
2023-04-11T20:47:37.714Z,98310.08
2023-04-11T20:52:45.832Z,98315.50
2023-04-11T20:57:47.944Z,98313.45
2023-04-11T21:02:50.560Z,98316.77
2023-04-11T21:07:54.486Z,98316.44
2023-04-11T21:13:02.394Z,98316.05
2023-04-11T21:18:07.283Z,98316.42
2023-04-11T21:23:09.606Z,98318.02
2023-04-11T21:28:11.974Z,98317.77
2023-04-11T21:33:13.838Z,98314.94
2023-04-11T21:38:15.982Z,98316.39
2023-04-11T21:43:18.502Z,98323.63
2023-04-11T21:48:20.940Z,98325.81
2023-04-11T21:53:24.456Z,98327.82
2023-04-11T21:58:29.916Z,98326.73
2023-04-11T22:03:32.756Z,98333.52
2023-04-11T22:08:39.097Z,98334.51
2023-04-11T22:13:46.221Z,98330.70
2023-04-11T22:18:49.098Z,98330.11
2023-04-11T22:23:54.837Z,98335.52
2023-04-11T22:28:58.372Z,98335.81
2023-04-11T22:34:01.953Z,98341.15
2023-04-11T22:39:04.978Z,98344.33
2023-04-11T22:44:06.959Z,98342.22
2023-04-11T22:49:12.547Z,98343.04
2023-04-11T22:54:15.666Z,98344.73
2023-04-11T22:59:17.764Z,98339.14
2023-04-11T23:04:20.881Z,98333.77
2023-04-11T23:09:23.846Z,98332.92
2023-04-11T23:14:33.560Z,98334.39
2023-04-11T23:19:35.542Z,98332.27
2023-04-11T23:24:37.673Z,98330.86
2023-04-11T23:29:39.769Z,98331.38
2023-04-11T23:34:42.148Z,98334.79
2023-04-11T23:39:53.191Z,98332.27
2023-04-11T23:44:55.646Z,98333.88
2023-04-11T23:50:03.033Z,98330.20
2023-04-11T23:55:05.495Z,98328.50
